Time;durP1;ratioP1;P1;durP2;ratioP2;P2;SDS_P1;SDS_P2;PMS_P1;PMS_P2;Temp;Humidity;BMP_temperature;BMP_pressure;BME280_temperature;BME280_humidity;BME280_pressure;Samples;Min_cycle;Max_cycle;Signal;HPM_P1;HPM_P2
2023/07/11 00:02:09;;;;;;;;;21.00;16.67;;;;;22.85;74.31;99626.94;6288006;20;3566983;-43
2023/07/11 00:04:38;;;;;;;;;21.00;21.00;;;;;22.98;73.20;99626.41;6313656;20;3583635;-43
2023/07/11 00:07:07;;;;;;;;;24.67;21.67;;;;;23.14;71.74;99631.84;6312059;20;3582577;-44
2023/07/11 00:09:36;;;;;;;;;26.00;24.25;;;;;23.09;72.06;99633.41;6317319;20;3600477;-45
2023/07/11 00:12:06;;;;;;;;;18.33;17.33;;;;;22.89;73.75;99627.47;6313283;20;3570130;-44
2023/07/11 00:14:36;;;;;;;;;25.00;22.33;;;;;22.88;73.24;99628.47;6316566;20;3594132;-45
2023/07/11 00:17:05;;;;;;;;;22.67;22.67;;;;;23.03;73.63;99628.63;6282604;20;3584610;-43
2023/07/11 00:19:54;;;;;;;;;30.75;25.00;;;;;22.56;76.35;99622.03;6282936;20;3609699;-44
2023/07/11 00:22:27;;;;;;;;;26.00;22.33;;;;;22.40;77.36;99633.84;6310001;20;3590874;-44
2023/07/11 00:24:55;;;;;;;;;27.00;26.00;;;;;22.41;77.59;99632.84;6320078;20;3481626;-44
2023/07/11 00:27:24;;;;;;;;;22.67;22.67;;;;;22.39;77.31;99632.16;6310677;20;3589851;-43
2023/07/11 00:29:53;;;;;;;;;26.00;24.33;;;;;22.24;77.23;99637.44;6314971;20;3600254;-44
2023/07/11 00:32:22;;;;;;;;;25.33;25.33;;;;;22.36;76.00;99632.50;6285519;20;3593010;-45
2023/07/11 00:34:51;;;;;;;;;27.75;26.00;;;;;21.96;78.03;99636.91;6287796;20;3606511;-47
2023/07/11 00:37:20;;;;;;;;;23.00;23.00;;;;;22.07;77.49;99638.47;6312854;20;3590000;-43
2023/07/11 00:39:48;;;;;;;;;23.67;23.33;;;;;22.26;76.79;99642.75;6316447;20;3594060;-44
2023/07/11 00:42:16;;;;;;;;;23.00;23.00;;;;;21.92;78.43;99625.44;6281613;20;3589376;-45
2023/07/11 00:44:57;;;;;;;;;24.67;24.00;;;;;22.03;79.12;99632.44;6285028;20;3596108;-44
2023/07/11 00:47:27;;;;;;;;;28.67;26.00;;;;;21.51;81.77;99629.94;6283198;20;3602361;-45
2023/07/11 00:50:09;;;;;;;;;27.00;24.67;;;;;21.72;82.08;99629.50;6285436;20;3600270;-43
2023/07/11 00:52:38;;;;;;;;;27.00;21.00;;;;;21.51;81.81;99624.50;6282350;20;3574310;-44
2023/07/11 00:55:10;;;;;;;;;22.33;22.33;;;;;21.56;82.27;99619.38;6286678;20;3612882;-44
2023/07/11 00:57:42;;;;;;;;;27.00;27.00;;;;;21.57;81.55;99614.81;6281279;20;3595112;-44
2023/07/11 01:00:11;;;;;;;;;26.33;23.67;;;;;21.83;80.37;99620.16;6282648;20;3593123;-44
2023/07/11 01:02:39;;;;;;;;;23.33;23.33;;;;;21.67;81.14;99610.91;6279921;20;3589881;-44
2023/07/11 01:05:08;;;;;;;;;23.00;23.00;;;;;21.85;80.81;99607.16;6286078;20;3583611;-44
2023/07/11 01:07:37;;;;;;;;;30.00;27.00;;;;;21.92;80.96;99603.56;6282151;20;3580605;-43
2023/07/11 01:10:06;;;;;;;;;28.67;27.33;;;;;21.96;80.38;99604.09;6281270;20;3586833;-43
2023/07/11 01:12:34;;;;;;;;;25.00;23.33;;;;;22.05;80.92;99614.00;6280574;20;3591963;-44
2023/07/11 01:15:04;;;;;;;;;29.00;27.00;;;;;21.91;80.91;99611.97;6281909;20;3576448;-44
2023/07/11 01:17:34;;;;;;;;;25.00;24.00;;;;;22.08;80.34;99607.34;6283021;20;3600366;-43
2023/07/11 01:20:09;;;;;;;;;26.00;23.33;;;;;21.86;81.51;99609.72;6283208;20;3598160;-43
2023/07/11 01:22:39;;;;;;;;;27.00;26.00;;;;;21.72;82.28;99606.78;6276784;20;3599357;-45
2023/07/11 01:25:12;;;;;;;;;25.00;23.00;;;;;21.88;81.41;99612.28;6283067;20;3590955;-44
2023/07/11 01:27:46;;;;;;;;;26.67;24.00;;;;;21.95;79.84;99618.78;6280171;20;3598231;-42
2023/07/11 01:30:22;;;;;;;;;25.00;24.67;;;;;21.57;81.41;99609.34;6280577;20;3585880;-48
2023/07/11 01:32:51;;;;;;;;;26.33;26.00;;;;;21.31;84.72;99609.41;6280169;20;3588967;-46
2023/07/11 01:35:19;;;;;;;;;24.67;24.00;;;;;21.33;84.72;99604.59;6283798;20;3581938;-43
2023/07/11 01:37:47;;;;;;;;;22.00;22.00;;;;;21.09;85.64;99608.97;6279109;20;3591999;-47
2023/07/11 01:40:15;;;;;;;;;25.00;23.33;;;;;20.94;85.93;99603.25;6277213;20;3606477;-43
2023/07/11 01:42:44;;;;;;;;;23.67;22.00;;;;;20.60;86.38;99605.97;6279997;20;3579514;-44
2023/07/11 01:45:12;;;;;;;;;25.00;22.33;;;;;20.74;85.58;99601.78;6280620;20;3590876;-44
2023/07/11 01:47:41;;;;;;;;;21.67;21.33;;;;;20.58;86.11;99591.63;6277309;20;3598250;-44
2023/07/11 01:50:09;;;;;;;;;26.67;23.33;;;;;20.65;86.65;99592.72;6284479;20;3590899;-46
2023/07/11 01:52:38;;;;;;;;;24.00;20.00;;;;;20.96;85.38;99600.38;6278999;20;3585797;-43
2023/07/11 01:55:10;;;;;;;;;27.67;27.33;;;;;20.74;86.79;99597.19;6283118;20;3602370;-44
2023/07/11 01:57:38;;;;;;;;;26.33;24.00;;;;;20.89;85.03;99596.59;6281101;20;3598298;-44
2023/07/11 02:00:07;;;;;;;;;26.33;26.33;;;;;20.65;87.04;99598.16;6280791;20;3583622;-44
2023/07/11 02:02:35;;;;;;;;;25.00;24.00;;;;;20.91;85.26;99598.13;6282645;20;3601300;-43
2023/07/11 02:05:04;;;;;;;;;25.00;25.00;;;;;21.31;82.93;99604.78;6280077;20;3599433;-43
2023/07/11 02:07:33;;;;;;;;;25.33;24.67;;;;;20.98;85.33;99592.88;6281211;20;3583614;-43
2023/07/11 02:10:01;;;;;;;;;28.67;27.67;;;;;20.84;87.06;99591.63;6282323;20;3581666;-44
2023/07/11 02:12:29;;;;;;;;;26.67;25.67;;;;;20.97;86.01;99591.16;6283002;20;3595089;-44
2023/07/11 02:14:57;;;;;;;;;23.33;23.33;;;;;21.16;84.31;99585.44;6280176;20;3598176;-44
2023/07/11 02:17:26;;;;;;;;;27.33;23.67;;;;;21.32;84.29;99589.25;6280528;20;3598328;-44
2023/07/11 02:19:54;;;;;;;;;27.67;27.67;;;;;21.05;85.50;99589.31;6283327;20;3584639;-48
2023/07/11 02:22:22;;;;;;;;;24.00;23.33;;;;;21.20;84.78;99581.38;6280159;20;3591914;-45
2023/07/11 02:24:51;;;;;;;;;26.33;26.33;;;;;20.94;86.97;99586.88;6277529;20;3603481;-45
2023/07/11 02:27:20;;;;;;;;;25.00;25.00;;;;;20.86;88.26;99584.13;6309694;20;3599510;-47
2023/07/11 02:29:49;;;;;;;;;31.00;27.00;;;;;20.90;88.12;99579.19;6313660;20;3591954;-44
2023/07/11 02:32:17;;;;;;;;;27.00;27.00;;;;;20.78;89.49;99576.75;6283001;20;3577458;-44
2023/07/11 02:34:45;;;;;;;;;30.67;28.67;;;;;20.89;88.42;99570.16;6284709;20;3585657;-44
2023/07/11 02:37:13;;;;;;;;;30.67;29.33;;;;;21.11;87.78;99574.16;6282110;20;3586739;-43
2023/07/11 02:39:41;;;;;;;;;31.00;25.67;;;;;20.86;87.88;99575.09;6280258;20;3596108;-45
2023/07/11 02:42:10;;;;;;;;;28.00;27.00;;;;;20.95;87.84;99572.22;6282471;20;3584705;-43
2023/07/11 02:44:38;;;;;;;;;24.00;22.00;;;;;20.94;87.84;99572.38;6282539;20;3582668;-45
2023/07/11 02:47:06;;;;;;;;;25.67;25.67;;;;;21.07;87.57;99564.59;6278920;20;3594121;-43
2023/07/11 02:49:38;;;;;;;;;31.67;29.67;;;;;20.66;89.41;99561.66;6276447;20;3586862;-45
2023/07/11 02:52:08;;;;;;;;;25.67;24.00;;;;;20.60;88.96;99563.19;6282776;20;3593016;-44
2023/07/11 02:54:36;;;;;;;;;28.00;26.00;;;;;20.45;89.74;99563.91;6281389;20;3579423;-43
2023/07/11 02:57:07;;;;;;;;;27.00;25.67;;;;;20.64;88.71;99562.84;6280937;20;3591984;-44
2023/07/11 02:59:36;;;;;;;;;27.00;25.00;;;;;20.29;89.84;99561.94;6282536;20;3598128;-46
2023/07/11 03:02:04;;;;;;;;;24.00;23.33;;;;;20.30;88.76;99574.53;6282655;20;3595052;-46
2023/07/11 03:04:33;;;;;;;;;19.67;19.67;;;;;20.32;88.56;99569.78;6282684;20;3585660;-43
2023/07/11 03:07:01;;;;;;;;;21.00;19.00;;;;;19.94;90.40;99561.84;6281712;20;3572208;-45
2023/07/11 03:09:33;;;;;;;;;25.67;23.33;;;;;19.99;90.93;99564.09;6282359;20;3588824;-43
2023/07/11 03:12:01;;;;;;;;;24.67;24.67;;;;;19.57;94.11;99558.41;6282220;20;3584709;-44
2023/07/11 03:14:29;;;;;;;;;25.33;24.33;;;;;19.79;93.54;99563.41;6283808;20;3597277;-43
2023/07/11 03:16:58;;;;;;;;;28.75;25.50;;;;;19.71;94.20;99560.63;6277954;20;3606587;-43
2023/07/11 03:19:26;;;;;;;;;24.67;22.67;;;;;19.50;95.02;99550.84;6312654;20;3589871;-43
2023/07/11 03:21:55;;;;;;;;;24.67;21.00;;;;;19.50;94.91;99561.75;6279969;20;3577377;-43
2023/07/11 03:24:23;;;;;;;;;27.00;23.33;;;;;19.64;94.90;99560.38;6283023;20;3588818;-45
2023/07/11 03:26:51;;;;;;;;;28.00;28.00;;;;;19.45;97.15;99561.34;6280711;20;3588901;-43
2023/07/11 03:29:19;;;;;;;;;26.67;25.67;;;;;19.86;95.64;99567.22;6281444;20;3583731;-44
2023/07/11 03:31:47;;;;;;;;;29.33;26.33;;;;;20.08;94.43;99565.00;6280182;20;3580575;-43
2023/07/11 03:34:15;;;;;;;;;26.33;26.33;;;;;20.25;94.06;99564.13;6276477;20;3592103;-44
2023/07/11 03:36:44;;;;;;;;;32.67;29.33;;;;;20.13;94.73;99560.78;6280639;20;3587493;-44
2023/07/11 03:39:12;;;;;;;;;28.67;26.67;;;;;20.34;94.12;99568.59;6280606;20;3577374;-44
2023/07/11 03:41:40;;;;;;;;;31.67;27.67;;;;;20.30;94.60;99572.69;6279456;20;3583787;-43
2023/07/11 03:44:10;;;;;;;;;30.00;27.33;;;;;20.46;93.41;99568.31;6281779;20;3585701;-42
2023/07/11 03:46:41;;;;;;;;;32.00;29.33;;;;;20.19;92.74;99564.75;6277169;20;3577540;-44
2023/07/11 03:49:10;;;;;;;;;24.00;20.67;;;;;20.14;93.51;99572.53;6282799;20;3585685;-43
2023/07/11 03:51:38;;;;;;;;;28.50;27.00;;;;;19.82;94.72;99568.53;6282637;20;3480617;-44
2023/07/11 03:54:06;;;;;;;;;28.67;28.00;;;;;20.25;93.47;99574.16;6310588;20;3612752;-43
2023/07/11 03:56:34;;;;;;;;;22.00;22.00;;;;;20.45;92.41;99580.28;6279893;20;3597128;-44
2023/07/11 03:59:02;;;;;;;;;26.00;26.00;;;;;20.56;91.88;99589.09;6280589;20;3584628;-42
2023/07/11 04:01:30;;;;;;;;;23.67;23.00;;;;;20.50;93.47;99580.66;6278152;20;3591413;-46
2023/07/11 04:03:59;;;;;;;;;26.33;26.33;;;;;20.76;92.45;99586.97;6283387;20;3581540;-43
2023/07/11 04:06:27;;;;;;;;;27.67;23.00;;;;;20.76;92.15;99586.97;6285636;20;3600267;-42
2023/07/11 04:08:55;;;;;;;;;29.67;28.67;;;;;20.95;91.93;99595.94;6282954;20;3576320;-42
2023/07/11 04:11:23;;;;;;;;;25.00;25.00;;;;;21.09;89.60;99589.88;6285920;20;3593350;-43
2023/07/11 04:13:52;;;;;;;;;28.33;25.33;;;;;20.79;90.45;99594.81;6282825;20;3596550;-43
2023/07/11 04:16:20;;;;;;;;;24.67;23.67;;;;;20.77;89.94;99591.44;6285164;20;3598279;-43
2023/07/11 04:18:49;;;;;;;;;28.33;24.67;;;;;20.82;89.96;99591.75;6283470;20;3596083;-42
2023/07/11 04:21:17;;;;;;;;;24.67;24.33;;;;;20.95;89.45;99598.66;6285510;20;3598274;-43
2023/07/11 04:23:46;;;;;;;;;28.00;28.00;;;;;20.99;89.84;99589.97;6284422;20;3579452;-42
2023/07/11 04:26:15;;;;;;;;;23.67;23.67;;;;;21.42;89.47;99595.47;6281059;20;3594016;-42
2023/07/11 04:28:43;;;;;;;;;26.00;26.00;;;;;21.47;89.17;99593.09;6285077;20;3595096;-43
2023/07/11 04:31:11;;;;;;;;;24.33;24.33;;;;;21.57;88.90;99599.25;6279851;20;3602361;-43
2023/07/11 04:33:40;;;;;;;;;21.67;21.67;;;;;21.87;86.86;99595.00;6284561;20;3590909;-43
2023/07/11 04:36:11;;;;;;;;;23.00;23.00;;;;;22.04;87.21;99598.63;6286465;20;3586708;-43
2023/07/11 04:38:39;;;;;;;;;25.00;25.00;;;;;22.21;85.46;99609.59;6283308;20;3587929;-42
2023/07/11 04:41:10;;;;;;;;;26.75;26.25;;;;;22.11;87.04;99607.84;6285173;20;3606500;-43
2023/07/11 04:43:39;;;;;;;;;25.33;23.33;;;;;22.57;83.58;99612.81;6311339;20;3589959;-42
2023/07/11 04:46:09;;;;;;;;;26.33;23.67;;;;;22.67;83.56;99602.53;6286418;20;3593000;-42
2023/07/11 04:48:38;;;;;;;;;21.33;21.33;;;;;22.70;84.00;99606.81;6282638;20;3592970;-42
2023/07/11 04:51:10;;;;;;;;;24.50;23.25;;;;;22.80;83.84;99607.44;6281269;20;3601316;-42
2023/07/11 04:53:39;;;;;;;;;24.00;23.67;;;;;23.12;82.42;99611.16;6311176;20;3602039;-42
2023/07/11 04:56:10;;;;;;;;;25.33;25.33;;;;;23.17;82.20;99616.94;6281888;20;3590991;-44
2023/07/11 04:58:38;;;;;;;;;26.67;23.33;;;;;23.15;81.58;99616.28;6279930;20;3599240;-42
2023/07/11 05:01:11;;;;;;;;;25.25;24.00;;;;;23.20;81.17;99620.19;6276369;20;3597309;-42
2023/07/11 05:03:41;;;;;;;;;26.00;22.67;;;;;23.13;81.63;99618.34;6310917;20;3598382;-45
2023/07/11 05:06:14;;;;;;;;;25.33;25.33;;;;;23.33;82.13;99619.63;6309640;20;3601317;-43
2023/07/11 05:08:43;;;;;;;;;25.67;24.67;;;;;23.50;80.84;99617.63;6309614;20;3589870;-42
2023/07/11 05:11:18;;;;;;;;;25.33;23.00;;;;;23.43;82.10;99620.25;6312369;20;3596117;-44
2023/07/11 05:13:49;;;;;;;;;23.67;23.67;;;;;23.72;79.75;99624.22;6276273;20;3600275;-44
2023/07/11 05:16:21;;;;;;;;;23.00;22.00;;;;;24.01;77.31;99623.53;6276758;20;3580483;-43
2023/07/11 05:18:50;;;;;;;;;21.33;19.00;;;;;24.31;76.07;99629.97;6283423;20;3571094;-44
2023/07/11 05:21:19;;;;;;;;;22.67;22.67;;;;;24.26;76.09;99626.91;6281110;20;3592027;-44
2023/07/11 05:23:48;;;;;;;;;20.67;19.67;;;;;24.43;75.38;99632.25;6280174;20;3580460;-45
2023/07/11 05:26:18;;;;;;;;;20.00;19.00;;;;;24.55;75.36;99633.56;6281644;20;3565895;-43
2023/07/11 05:28:46;;;;;;;;;24.00;21.00;;;;;24.36;76.02;99636.81;6284061;20;3595130;-42
2023/07/11 05:31:15;;;;;;;;;22.33;22.33;;;;;24.18;76.45;99629.72;6285066;20;3582702;-45
2023/07/11 05:33:43;;;;;;;;;22.33;19.67;;;;;24.59;75.03;99628.53;6286522;20;3572154;-46
2023/07/11 05:36:33;;;;;;;;;24.33;21.33;;;;;24.84;73.43;99629.16;6288188;20;3596204;-43
2023/07/11 05:39:13;;;;;;;;;19.67;19.67;;;;;24.87;74.22;99634.25;6284782;20;3571270;-48
2023/07/11 05:41:50;;;;;;;;;20.67;20.67;;;;;25.31;72.18;99637.03;6287353;20;3590901;-45
2023/07/11 05:44:18;;;;;;;;;23.67;20.00;;;;;25.43;71.18;99633.78;6284241;20;3581532;-44
2023/07/11 05:46:46;;;;;;;;;21.33;21.33;;;;;25.34;75.21;99622.06;6283577;20;3585699;-46
2023/07/11 05:49:16;;;;;;;;;24.00;22.75;;;;;25.57;74.03;99635.69;6282858;20;3601259;-46
2023/07/11 05:51:44;;;;;;;;;21.67;19.67;;;;;25.42;74.44;99638.44;6318008;20;3587761;-44
2023/07/11 05:54:13;;;;;;;;;20.67;19.33;;;;;25.66;70.91;99631.75;6281592;20;3575385;-43
2023/07/11 05:56:41;;;;;;;;;5.67;4.33;;;;;26.00;68.79;99639.38;6285335;20;2746254;-45
2023/07/11 05:59:10;;;;;;;;;20.00;17.33;;;;;26.23;67.13;99636.44;6309899;20;3571105;-47
2023/07/11 06:01:39;;;;;;;;;21.33;18.67;;;;;26.19;68.86;99637.00;6314667;20;3567978;-44
2023/07/11 06:04:15;;;;;;;;;22.00;20.00;;;;;26.36;66.82;99634.84;6312147;20;3568035;-44
2023/07/11 06:06:43;;;;;;;;;19.67;19.67;;;;;26.55;65.92;99634.19;6315280;20;3577390;-48
2023/07/11 06:09:16;;;;;;;;;15.33;15.33;;;;;26.82;64.71;99640.75;6285846;20;3542041;-44
2023/07/11 06:11:47;;;;;;;;;20.00;19.00;;;;;26.68;64.85;99645.31;6285122;20;3575256;-44
2023/07/11 06:14:16;;;;;;;;;19.33;18.33;;;;;26.54;65.55;99642.63;6285540;20;3570040;-47
2023/07/11 06:16:46;;;;;;;;;22.33;21.00;;;;;26.79;64.13;99645.81;6284082;20;3568055;-47
2023/07/11 06:19:18;;;;;;;;;16.00;16.00;;;;;27.04;63.78;99648.94;6285449;20;3560770;-45
2023/07/11 06:21:47;;;;;;;;;18.00;18.00;;;;;27.22;63.60;99654.81;6281667;20;3566923;-47
2023/07/11 06:24:15;;;;;;;;;22.00;20.67;;;;;27.25;62.99;99657.19;6281094;20;3583636;-47
2023/07/11 06:26:43;;;;;;;;;18.00;17.33;;;;;27.52;63.08;99657.31;6283847;20;3553585;-50
2023/07/11 06:29:12;;;;;;;;;18.00;18.00;;;;;27.63;62.01;99656.72;6284674;20;3567062;-45
2023/07/11 06:31:41;;;;;;;;;18.00;17.67;;;;;27.65;60.33;99650.97;6282347;20;2833788;-48
2023/07/11 06:34:10;;;;;;;;;19.00;19.00;;;;;27.82;60.65;99651.50;6316030;20;3563741;-44
2023/07/11 06:36:38;;;;;;;;;19.33;17.00;;;;;28.34;58.03;99652.69;6283657;20;3563797;-46
2023/07/11 06:39:06;;;;;;;;;16.67;16.67;;;;;28.33;56.78;99650.97;6282995;20;3553632;-44
2023/07/11 06:41:35;;;;;;;;;18.33;15.33;;;;;28.50;56.15;99660.59;6293190;20;2826538;-47
2023/07/11 06:44:06;;;;;;;;;17.67;17.67;;;;;28.54;56.21;99656.34;6313747;20;3563904;-43
2023/07/11 06:46:37;;;;;;;;;17.33;16.67;;;;;28.69;54.04;99660.78;6274857;20;3571096;-50
2023/07/11 06:49:05;;;;;;;;;16.33;15.00;;;;;28.94;52.84;99660.97;6277969;20;3556530;-49
2023/07/11 06:51:33;;;;;;;;;17.33;16.67;;;;;28.87;54.14;99661.84;6279597;20;3569068;-45
2023/07/11 06:54:02;;;;;;;;;18.33;18.33;;;;;29.05;55.25;99652.06;6276436;20;3572250;-44
2023/07/11 06:56:33;;;;;;;;;18.33;18.33;;;;;28.70;55.37;99659.72;6308038;20;3561923;-44
2023/07/11 06:59:01;;;;;;;;;18.67;17.00;;;;;29.21;54.55;99662.66;6316401;20;3537838;-47
2023/07/11 07:01:29;;;;;;;;;15.33;15.33;;;;;29.26;54.49;99664.78;6283281;20;3552526;-45
2023/07/11 07:04:05;;;;;;;;;17.67;16.00;;;;;29.60;52.58;99668.31;6316028;20;3562757;-47
2023/07/11 07:06:35;;;;;;;;;18.67;18.67;;;;;29.82;52.79;99668.88;6281538;20;3575426;-46
2023/07/11 07:09:05;;;;;;;;;23.00;18.67;;;;;29.84;51.04;99667.56;6282016;20;3575225;-45
2023/07/11 07:11:37;;;;;;;;;16.67;16.67;;;;;29.77;52.11;99669.53;6316283;20;3567009;-48
2023/07/11 07:14:10;;;;;;;;;16.00;16.00;;;;;30.42;50.79;99674.94;6283019;20;3547127;-45
2023/07/11 07:16:41;;;;;;;;;23.57;21.00;;;;;30.07;51.50;99671.69;6295846;20;3571207;-46
2023/07/11 07:19:28;;;;;;;;;20.33;18.67;;;;;30.15;51.23;99674.22;6276120;20;3558723;-44
2023/07/11 07:21:56;;;;;;;;;13.33;11.33;;;;;30.00;51.53;99676.44;6283136;20;2483631;-46
2023/07/11 07:24:24;;;;;;;;;15.00;15.00;;;;;30.30;49.52;99683.09;6314860;20;3547542;-44
2023/07/11 07:26:52;;;;;;;;;21.00;20.00;;;;;29.95;51.72;99677.09;6280265;20;3572162;-47
2023/07/11 07:29:21;;;;;;;;;16.00;16.00;;;;;30.26;50.29;99687.41;6276948;20;2483635;-46
2023/07/11 07:31:50;;;;;;;;;18.33;17.00;;;;;30.08;51.18;99690.03;6303162;20;3569233;-47
2023/07/11 07:34:19;;;;;;;;;15.33;15.33;;;;;30.07;49.94;99691.09;6312566;20;3552443;-44
2023/07/11 07:36:47;;;;;;;;;17.33;16.00;;;;;30.27;49.42;99689.09;6277523;20;3562738;-48
2023/07/11 07:39:15;;;;;;;;;17.00;17.00;;;;;30.18;48.66;99680.16;6287711;20;3559773;-49
2023/07/11 07:41:43;;;;;;;;;18.67;17.00;;;;;30.32;47.91;99693.97;6287629;20;3564900;-45
2023/07/11 07:44:13;;;;;;;;;19.67;18.00;;;;;30.18;47.74;99690.41;6287404;20;3565087;-46
2023/07/11 07:46:41;;;;;;;;;19.00;19.00;;;;;30.66;46.90;99687.09;6283144;20;3572168;-49
2023/07/11 07:49:09;;;;;;;;;15.50;15.50;;;;;30.36;46.89;99682.22;6285458;20;2801344;-45
2023/07/11 07:51:38;;;;;;;;;15.50;15.50;;;;;30.49;47.87;99686.81;6284834;20;2820154;-47
2023/07/11 07:54:06;;;;;;;;;18.33;16.00;;;;;30.50;47.08;99690.44;6290411;20;3562885;-51
2023/07/11 07:56:35;;;;;;;;;18.33;18.33;;;;;30.71;46.44;99684.50;6283152;20;3579518;-49
2023/07/11 07:59:03;;;;;;;;;18.33;16.33;;;;;30.81;46.32;99689.56;6287296;20;3557602;-49
2023/07/11 08:01:32;;;;;;;;;12.50;12.50;;;;;30.98;45.94;99687.91;6282066;20;2794569;-47
2023/07/11 08:04:00;;;;;;;;;15.00;15.00;;;;;31.13;46.29;99687.56;6288036;20;3552303;-47
2023/07/11 08:06:28;;;;;;;;;16.00;14.67;;;;;31.22;44.78;99691.72;6286878;20;3550264;-44
2023/07/11 08:08:56;;;;;;;;;18.67;18.67;;;;;31.53;44.15;99692.72;6287628;20;3576327;-45
2023/07/11 08:11:24;;;;;;;;;14.00;14.00;;;;;30.93;45.93;99686.91;6283973;20;3539942;-46
2023/07/11 08:13:53;;;;;;;;;17.33;17.33;;;;;30.40;46.92;99690.91;6313717;20;3559687;-47
2023/07/11 08:16:28;;;;;;;;;17.67;16.33;;;;;30.65;46.15;99702.03;6315875;20;3550374;-45
2023/07/11 08:19:06;;;;;;;;;17.33;16.00;;;;;30.45;46.63;99701.34;6282356;20;3560751;-52
2023/07/11 08:21:36;;;;;;;;;16.67;16.67;;;;;30.62;44.52;99696.94;6283127;20;3562985;-44
2023/07/11 08:24:06;;;;;;;;;15.00;15.00;;;;;30.17;45.68;99699.75;6284713;20;2483652;-45
2023/07/11 08:26:35;;;;;;;;;15.00;14.00;;;;;30.40;44.14;99708.38;6315412;20;3536683;-49
2023/07/11 08:29:03;;;;;;;;;13.00;12.00;;;;;30.87;43.34;99707.22;6281374;20;2801430;-44
2023/07/11 08:31:51;;;;;;;;;14.00;14.00;;;;;31.52;42.04;99716.00;6285745;20;2806538;-49
2023/07/11 08:34:19;;;;;;;;;16.00;16.00;;;;;31.48;41.23;99714.75;6285979;20;3556521;-45
2023/07/11 08:36:47;;;;;;;;;15.33;15.33;;;;;31.63;40.18;99709.66;6283368;20;3539854;-44
2023/07/11 08:39:15;;;;;;;;;17.50;15.00;;;;;31.95;38.52;99706.75;6311550;20;2814831;-49
2023/07/11 08:41:50;;;;;;;;;18.00;14.00;;;;;31.93;39.07;99708.91;6282560;20;2812827;-46
2023/07/11 08:44:40;;;;;;;;;17.67;14.00;;;;;31.50;39.83;99704.28;6285474;20;3554514;-45
2023/07/11 08:47:23;;;;;;;;;15.50;13.50;;;;;32.18;39.43;99711.56;6277957;20;2811856;-45
2023/07/11 08:50:01;;;;;;;;;16.33;13.00;;;;;31.92;39.71;99708.06;6285876;20;3542007;-47
2023/07/11 08:52:31;;;;;;;;;15.00;15.00;;;;;32.54;38.14;99705.03;6278809;20;2808642;-45
2023/07/11 08:55:42;;;;;;;;;12.67;11.33;;;;;32.42;36.16;99712.50;6282965;20;3520107;-47
2023/07/11 08:58:14;;;;;;;;;15.00;14.00;;;;;31.78;35.45;99708.41;6311180;20;2786974;-47
2023/07/11 09:00:46;;;;;;;;;16.67;12.67;;;;;31.83;35.65;99708.56;6286159;20;3534813;-46
2023/07/11 09:03:34;;;;;;;;;13.00;13.00;;;;;31.99;36.23;99707.94;6312421;20;3526418;-45
2023/07/11 09:06:07;;;;;;;;;15.50;13.50;;;;;31.83;35.99;99703.00;6312121;20;2806637;-45
2023/07/11 09:08:42;;;;;;;;;14.00;13.50;;;;;31.68;37.01;99712.59;6280284;20;2789927;-44
2023/07/11 09:11:48;;;;;;;;;13.00;13.00;;;;;31.99;36.71;99712.66;6281148;20;3523264;-48
2023/07/11 09:14:48;;;;;;;;;15.00;13.50;;;;;32.24;37.39;99721.72;6312743;20;2805999;-45
2023/07/11 09:17:35;;;;;;;;;8.33;8.33;;;;;32.02;37.21;99712.19;6279143;20;3462888;-45
2023/07/11 09:20:40;;;;;;;;;13.33;13.33;;;;;32.96;36.23;99713.34;6314630;20;3530540;-45
2023/07/11 09:23:38;;;;;;;;;14.67;13.00;;;;;32.01;37.70;99716.91;6314932;20;3524305;-44
2023/07/11 09:26:29;;;;;;;;;15.33;14.67;;;;;32.23;37.60;99716.38;6315520;20;3544111;-46
2023/07/11 09:29:04;;;;;;;;;18.67;17.67;;;;;32.32;37.43;99709.44;6309220;20;3573302;-47
2023/07/11 09:31:41;;;;;;;;;16.00;16.00;;;;;32.06;37.16;99707.88;6311152;20;3566972;-45
2023/07/11 09:34:35;;;;;;;;;15.33;14.33;;;;;31.71;37.67;99712.13;6314775;20;3544033;-43
2023/07/11 09:37:28;;;;;;;;;13.00;13.00;;;;;32.28;37.74;99713.75;6282704;20;2484369;-45
2023/07/11 09:40:09;;;;;;;;;15.00;13.33;;;;;31.96;38.27;99708.44;6312253;20;3538888;-47
2023/07/11 09:42:51;;;;;;;;;14.67;14.00;;;;;31.92;38.59;99713.59;6310397;20;3537785;-45
2023/07/11 09:45:31;;;;;;;;;16.00;16.00;;;;;31.66;39.08;99708.34;6312741;20;3561939;-46
2023/07/11 09:48:07;;;;;;;;;18.67;16.00;;;;;31.73;39.50;99708.25;6278121;20;3561685;-45
2023/07/11 09:50:59;;;;;;;;;14.33;14.33;;;;;31.81;39.23;99694.94;6284023;20;3544029;-45
2023/07/11 09:53:31;;;;;;;;;16.00;16.00;;;;;32.32;38.38;99703.88;6277728;20;2835686;-47
2023/07/11 09:56:03;;;;;;;;;15.67;14.67;;;;;32.35;38.08;99706.19;6285130;20;3543001;-45
2023/07/11 09:58:34;;;;;;;;;15.00;15.00;;;;;32.09;37.39;99696.28;6283728;20;3492042;-43
2023/07/11 10:01:06;;;;;;;;;17.33;15.67;;;;;31.86;37.06;99700.63;6311475;20;3563803;-44
2023/07/11 10:03:35;;;;;;;;;12.67;12.67;;;;;31.77;38.00;99703.94;6283763;20;3526318;-46
2023/07/11 10:06:04;;;;;;;;;16.00;14.67;;;;;31.77;38.28;99692.84;6314145;20;3549370;-44
2023/07/11 10:08:37;;;;;;;;;19.00;16.00;;;;;31.65;38.76;99696.41;6281289;20;3564863;-44
2023/07/11 10:11:12;;;;;;;;;14.00;14.00;;;;;31.84;38.10;99694.47;6282978;20;3541974;-43
2023/07/11 10:13:45;;;;;;;;;15.00;15.00;;;;;31.90;38.80;99698.22;6312995;20;3533600;-43
2023/07/11 10:16:18;;;;;;;;;14.67;13.00;;;;;32.33;36.41;99708.34;6279324;20;3516982;-43
2023/07/11 10:18:46;;;;;;;;;17.00;16.33;;;;;31.78;37.12;99695.41;6316545;20;3562803;-45
2023/07/11 10:21:20;;;;;;;;;16.50;15.00;;;;;31.83;36.77;99692.75;6278011;20;2819108;-44
2023/07/11 10:23:58;;;;;;;;;16.00;16.00;;;;;31.91;37.38;99697.13;6282424;20;3565974;-45
2023/07/11 10:26:30;;;;;;;;;17.00;15.67;;;;;32.14;37.54;99693.66;6281588;20;3566944;-50
2023/07/11 10:29:07;;;;;;;;;15.50;14.00;;;;;32.02;36.44;99690.84;6280140;20;2811749;-47
2023/07/11 10:31:57;;;;;;;;;13.33;12.67;;;;;32.80;36.66;99700.16;6279269;20;3523173;-48
2023/07/11 10:34:52;;;;;;;;;13.67;13.00;;;;;31.99;37.16;99694.06;6314339;20;3525265;-46
2023/07/11 10:37:41;;;;;;;;;16.00;16.00;;;;;32.38;37.66;99683.47;6306248;20;2827440;-47
2023/07/11 10:40:30;;;;;;;;;14.67;14.67;;;;;32.23;37.32;99680.28;6312037;20;3544020;-48
2023/07/11 10:43:20;;;;;;;;;15.00;15.00;;;;;32.32;37.57;99681.66;6273560;20;2798272;-46
2023/07/11 10:45:53;;;;;;;;;17.00;16.00;;;;;32.27;37.34;99681.50;6281261;20;3559965;-45
2023/07/11 10:48:30;;;;;;;;;19.67;15.33;;;;;32.80;37.42;99680.69;6279665;20;3564848;-44
2023/07/11 10:51:12;;;;;;;;;18.67;18.00;;;;;31.98;37.00;99684.03;6311925;20;3562757;-44
2023/07/11 10:54:20;;;;;;;;;19.00;16.00;;;;;32.38;37.39;99683.47;6309478;20;3556567;-47
2023/07/11 10:57:01;;;;;;;;;15.33;15.33;;;;;32.84;36.30;99676.34;6316028;20;3544022;-46
2023/07/11 10:59:32;;;;;;;;;22.00;18.00;;;;;32.43;37.17;99680.81;6306112;20;3566013;-46
2023/07/11 11:02:20;;;;;;;;;19.71;18.71;;;;;32.42;37.25;99679.13;6326582;20;3566928;-46
2023/07/11 11:05:38;;;;;;;;;20.00;19.33;;;;;31.92;38.27;99679.41;6283198;20;3564874;-45
2023/07/11 11:08:17;;;;;;;;;16.00;16.00;;;;;32.19;36.97;99682.69;6274876;20;3557680;-47
2023/07/11 11:11:06;;;;;;;;;20.71;20.71;;;;;32.96;36.75;99688.31;6299578;20;3574246;-45
2023/07/11 11:14:13;;;;;;;;;20.33;17.00;;;;;32.47;36.90;99682.09;6282471;20;3565952;-46
2023/07/11 11:16:54;;;;;;;;;18.67;18.00;;;;;32.34;37.93;99677.53;6283152;20;3563830;-46
2023/07/11 11:19:51;;;;;;;;;21.00;18.00;;;;;31.29;39.86;99686.13;6313741;20;3568482;-44
2023/07/11 11:23:05;;;;;;;;;18.29;18.00;;;;;31.57;38.75;99671.75;6331681;20;3575236;-49
2023/07/11 11:26:06;;;;;;;;;21.57;20.29;;;;;32.06;38.59;99669.81;6303572;20;3575938;-46
2023/07/11 11:28:40;;;;;;;;;20.00;20.00;;;;;32.25;38.10;99667.00;6284709;20;3577463;-45